createdAt,value
2023-06-18T00:01:16.311Z,60.88
2023-06-18T00:04:00.885Z,62.08
2023-06-18T00:06:30.322Z,62.53
2023-06-18T00:09:00.791Z,61.89
2023-06-18T00:11:30.285Z,62.44
2023-06-18T00:13:59.452Z,63.73
2023-06-18T00:16:28.921Z,63.34
2023-06-18T00:18:57.847Z,63.33
2023-06-18T00:21:27.519Z,63.82
2023-06-18T00:23:56.905Z,64.67
2023-06-18T00:26:27.738Z,63.81
2023-06-18T00:28:57.000Z,63.74
2023-06-18T00:31:27.151Z,64.50
2023-06-18T00:33:57.862Z,63.20
2023-06-18T00:36:27.513Z,62.95
2023-06-18T00:38:57.568Z,62.82
2023-06-18T00:41:29.933Z,62.88
2023-06-18T00:44:00.500Z,62.43
2023-06-18T00:46:31.681Z,61.70
2023-06-18T00:49:02.286Z,62.15
2023-06-18T00:51:32.340Z,61.09
2023-06-18T00:54:01.685Z,61.77
2023-06-18T00:56:33.781Z,62.13
2023-06-18T00:59:02.872Z,61.32
2023-06-18T01:01:34.182Z,62.21
2023-06-18T01:04:06.300Z,62.38
2023-06-18T01:06:38.144Z,62.08
2023-06-18T01:09:09.178Z,62.61
2023-06-18T01:11:41.855Z,62.43
2023-06-18T01:14:11.448Z,62.09
2023-06-18T01:16:47.399Z,63.01
2023-06-18T01:19:39.456Z,64.53
2023-06-18T01:22:18.805Z,61.76
2023-06-18T01:24:52.903Z,61.22
2023-06-18T01:27:25.346Z,61.12
2023-06-18T01:29:55.981Z,60.99
2023-06-18T01:32:25.967Z,60.93
2023-06-18T01:34:55.898Z,60.81
2023-06-18T01:37:36.691Z,61.01
2023-06-18T01:40:19.218Z,61.46
2023-06-18T01:42:57.951Z,60.78
2023-06-18T01:45:32.304Z,60.74
2023-06-18T01:48:06.020Z,61.22
2023-06-18T01:50:37.716Z,60.80
2023-06-18T01:53:09.009Z,60.31
2023-06-18T01:55:40.024Z,60.12
2023-06-18T01:58:11.877Z,60.27
2023-06-18T02:00:41.398Z,60.21
2023-06-18T02:03:10.922Z,59.94
2023-06-18T02:05:40.145Z,59.94
2023-06-18T02:08:09.598Z,60.06
2023-06-18T02:10:38.698Z,59.87
2023-06-18T02:13:11.555Z,59.74
2023-06-18T02:15:42.955Z,59.81
2023-06-18T02:18:13.420Z,59.80
2023-06-18T02:20:42.907Z,59.89
2023-06-18T02:23:14.384Z,59.65
2023-06-18T02:25:45.733Z,59.77
2023-06-18T02:28:16.812Z,59.80
2023-06-18T02:31:23.132Z,59.18
2023-06-18T02:33:52.592Z,59.52
2023-06-18T02:36:21.696Z,59.49
2023-06-18T02:38:53.248Z,59.57
2023-06-18T02:41:23.125Z,59.62
2023-06-18T02:43:54.243Z,59.66
2023-06-18T02:46:23.492Z,59.44
2023-06-18T02:48:52.857Z,59.45
2023-06-18T02:51:22.249Z,59.43
2023-06-18T02:53:51.640Z,59.65
2023-06-18T02:56:20.775Z,59.60
2023-06-18T02:58:52.389Z,59.46
2023-06-18T03:01:24.671Z,59.46
2023-06-18T03:03:54.948Z,59.34
2023-06-18T03:06:28.547Z,59.52
2023-06-18T03:08:58.518Z,59.48
2023-06-18T03:11:28.972Z,59.40
2023-06-18T03:13:58.969Z,59.48
2023-06-18T03:16:29.768Z,59.63
2023-06-18T03:19:00.024Z,59.62
2023-06-18T03:21:32.117Z,59.77
2023-06-18T03:24:03.886Z,59.84
2023-06-18T03:26:33.089Z,59.23
2023-06-18T03:29:03.490Z,59.98
2023-06-18T03:31:34.774Z,59.79
2023-06-18T03:34:04.800Z,59.68
2023-06-18T03:36:40.395Z,59.67
2023-06-18T03:39:11.543Z,59.61
2023-06-18T03:41:41.800Z,59.41
2023-06-18T03:44:11.326Z,59.50
2023-06-18T03:46:41.999Z,59.65
2023-06-18T03:49:11.495Z,59.70
2023-06-18T03:51:40.665Z,59.64
2023-06-18T03:54:11.044Z,60.04
2023-06-18T03:56:40.231Z,59.90
2023-06-18T03:59:11.189Z,60.38
2023-06-18T04:01:41.515Z,60.07
2023-06-18T04:04:11.059Z,60.13
2023-06-18T04:06:40.429Z,60.10
2023-06-18T04:09:10.016Z,60.27
2023-06-18T04:11:41.688Z,61.16
2023-06-18T04:14:11.249Z,60.17
2023-06-18T04:16:43.118Z,60.07
2023-06-18T04:19:13.171Z,60.67
2023-06-18T04:21:42.506Z,60.47
2023-06-18T04:24:11.888Z,61.60
2023-06-18T04:26:41.028Z,60.64
2023-06-18T04:29:10.593Z,61.13
2023-06-18T04:31:40.234Z,63.60
2023-06-18T04:34:12.557Z,63.00
2023-06-18T04:36:42.162Z,63.10
2023-06-18T04:39:11.795Z,63.22
2023-06-18T04:41:40.834Z,62.34
2023-06-18T04:44:14.030Z,63.84
2023-06-18T04:46:44.824Z,64.21
2023-06-18T04:49:17.098Z,64.60
2023-06-18T04:51:47.311Z,64.53
2023-06-18T04:54:19.552Z,64.06
2023-06-18T04:56:49.388Z,63.46
2023-06-18T04:59:18.748Z,63.79
2023-06-18T05:01:47.799Z,63.90
2023-06-18T05:04:19.838Z,64.31
2023-06-18T05:06:49.110Z,64.17
2023-06-18T05:09:19.683Z,64.14
2023-06-18T05:11:49.432Z,64.14
2023-06-18T05:14:19.344Z,64.01
2023-06-18T05:16:48.554Z,65.17
2023-06-18T05:19:19.331Z,64.71
2023-06-18T05:21:48.493Z,64.16
2023-06-18T05:24:18.785Z,64.61
2023-06-18T05:26:48.261Z,65.22
2023-06-18T05:29:19.333Z,64.37
2023-06-18T05:31:51.000Z,64.71
2023-06-18T05:34:30.324Z,64.59
2023-06-18T05:36:59.806Z,63.62
2023-06-18T05:39:30.089Z,64.35
2023-06-18T05:41:59.226Z,64.02
2023-06-18T05:44:29.390Z,64.63
2023-06-18T05:46:58.304Z,64.52
2023-06-18T05:49:30.279Z,63.39
2023-06-18T05:52:02.017Z,63.08
2023-06-18T05:54:31.909Z,62.89
2023-06-18T05:57:01.321Z,63.49
2023-06-18T05:59:30.997Z,63.77
2023-06-18T06:02:08.410Z,63.92
2023-06-18T06:04:39.335Z,64.29
2023-06-18T06:07:08.615Z,63.64
2023-06-18T06:09:38.054Z,64.25
2023-06-18T06:12:09.369Z,63.80
2023-06-18T06:14:38.921Z,63.98
2023-06-18T06:17:07.963Z,63.89
2023-06-18T06:19:38.685Z,64.09
2023-06-18T06:22:08.886Z,63.69
2023-06-18T06:24:38.404Z,63.24
2023-06-18T06:27:08.338Z,63.44
2023-06-18T06:29:38.028Z,62.58
2023-06-18T06:32:07.727Z,62.33
2023-06-18T06:34:38.553Z,61.84
2023-06-18T06:37:07.903Z,62.39
2023-06-18T06:39:37.944Z,62.09
2023-06-18T06:42:07.258Z,61.92
2023-06-18T06:44:36.678Z,61.50
2023-06-18T06:47:32.140Z,61.50
2023-06-18T06:50:18.882Z,61.42
2023-06-18T06:53:02.189Z,61.13
2023-06-18T06:55:31.738Z,61.33
2023-06-18T06:58:01.017Z,60.84
2023-06-18T07:00:30.737Z,60.62
2023-06-18T07:03:00.140Z,60.64
2023-06-18T07:05:31.933Z,60.60
2023-06-18T07:08:01.492Z,60.45
2023-06-18T07:10:30.930Z,60.09
2023-06-18T07:13:00.194Z,59.95
2023-06-18T07:15:29.478Z,59.53
2023-06-18T07:17:58.680Z,59.46
2023-06-18T07:20:28.094Z,59.53
2023-06-18T07:22:58.643Z,59.22
2023-06-18T07:25:27.980Z,59.32
2023-06-18T07:27:56.750Z,59.53
2023-06-18T07:30:26.181Z,59.37
2023-06-18T07:32:55.228Z,59.28
2023-06-18T07:35:24.665Z,59.22
2023-06-18T07:37:54.081Z,58.89
2023-06-18T07:40:26.966Z,58.91
2023-06-18T07:42:56.422Z,58.82
2023-06-18T07:45:25.709Z,58.66
2023-06-18T07:47:54.878Z,58.46
2023-06-18T07:50:24.592Z,58.88
2023-06-18T07:52:53.960Z,58.60
2023-06-18T07:55:25.010Z,58.46
2023-06-18T07:57:54.370Z,58.64
2023-06-18T08:00:24.092Z,57.97
2023-06-18T08:02:54.011Z,57.83
2023-06-18T08:05:23.542Z,57.93
2023-06-18T08:07:52.649Z,57.71
2023-06-18T08:10:23.610Z,57.86
2023-06-18T08:12:53.011Z,57.44
2023-06-18T08:15:22.414Z,57.50
2023-06-18T08:17:51.737Z,56.91
2023-06-18T08:20:21.671Z,57.11
2023-06-18T08:22:51.144Z,56.80
2023-06-18T08:25:20.557Z,56.93
2023-06-18T08:27:51.119Z,56.71
2023-06-18T08:30:20.637Z,56.99
2023-06-18T08:32:51.773Z,56.93
2023-06-18T08:35:21.712Z,55.24
2023-06-18T08:37:50.982Z,55.92
2023-06-18T08:40:26.224Z,55.76
2023-06-18T08:43:06.557Z,55.57
2023-06-18T08:45:37.317Z,54.45
2023-06-18T08:48:19.975Z,55.20
2023-06-18T08:51:05.017Z,55.12
2023-06-18T08:53:42.535Z,54.73
2023-06-18T08:56:12.812Z,54.36
2023-06-18T08:58:51.014Z,55.02
2023-06-18T09:01:20.914Z,53.95
2023-06-18T09:03:52.737Z,54.05
2023-06-18T09:06:22.258Z,54.26
2023-06-18T09:08:51.425Z,54.49
2023-06-18T09:11:21.964Z,53.85
2023-06-18T09:13:56.292Z,54.22
2023-06-18T09:16:27.720Z,54.09
2023-06-18T09:18:57.871Z,53.61
2023-06-18T09:21:39.977Z,53.05
2023-06-18T09:24:10.540Z,53.30
2023-06-18T09:26:40.090Z,53.34
2023-06-18T09:29:12.903Z,53.49
2023-06-18T09:31:46.152Z,53.22
2023-06-18T09:34:17.246Z,52.44
2023-06-18T09:36:49.388Z,52.75
2023-06-18T09:39:20.440Z,52.61
2023-06-18T09:41:51.044Z,52.33
2023-06-18T09:44:24.261Z,52.80
2023-06-18T09:46:57.550Z,51.94
2023-06-18T09:49:30.677Z,51.48
2023-06-18T09:52:00.544Z,52.70
2023-06-18T09:54:41.251Z,51.78
2023-06-18T09:57:12.757Z,52.30
2023-06-18T09:59:43.372Z,51.67
2023-06-18T10:02:15.154Z,52.10
2023-06-18T10:04:44.686Z,51.13
2023-06-18T10:07:18.002Z,51.04
2023-06-18T10:09:49.073Z,51.41
2023-06-18T10:12:19.783Z,51.44
2023-06-18T10:14:54.543Z,51.69
2023-06-18T10:17:28.225Z,51.25
2023-06-18T10:20:03.207Z,51.70
2023-06-18T10:22:37.510Z,51.06
2023-06-18T10:25:08.324Z,50.23
2023-06-18T10:27:38.609Z,49.34
2023-06-18T10:30:10.622Z,49.60
2023-06-18T10:32:41.902Z,50.62
2023-06-18T10:35:13.984Z,50.10
2023-06-18T10:37:45.302Z,50.07
2023-06-18T10:40:15.027Z,49.96
2023-06-18T10:42:49.294Z,50.18
2023-06-18T10:45:20.598Z,49.53
2023-06-18T10:47:50.349Z,50.01
2023-06-18T10:50:22.969Z,49.75
2023-06-18T10:52:54.418Z,49.88
2023-06-18T10:55:33.006Z,48.48
2023-06-18T10:58:04.639Z,49.05
2023-06-18T11:00:41.396Z,48.87
2023-06-18T11:03:16.596Z,49.45
2023-06-18T11:05:52.508Z,48.73
2023-06-18T11:08:28.706Z,49.24
2023-06-18T11:11:06.178Z,49.70
2023-06-18T11:13:39.186Z,48.60
2023-06-18T11:16:18.077Z,46.34
2023-06-18T11:18:47.801Z,47.20
2023-06-18T11:21:18.915Z,47.74
2023-06-18T11:23:49.548Z,48.37
2023-06-18T11:26:19.672Z,48.32
2023-06-18T11:28:49.698Z,47.50
2023-06-18T11:31:20.185Z,47.45
2023-06-18T11:33:50.764Z,47.93
2023-06-18T11:36:21.390Z,46.71
2023-06-18T11:38:58.817Z,45.82
2023-06-18T11:41:28.001Z,47.49
2023-06-18T11:43:58.526Z,47.20
2023-06-18T11:46:31.386Z,46.93
2023-06-18T11:49:01.960Z,47.78
2023-06-18T11:51:35.300Z,48.25
2023-06-18T11:54:06.085Z,48.98
2023-06-18T11:56:35.924Z,48.57
2023-06-18T11:59:05.515Z,47.76
2023-06-18T12:01:36.433Z,47.75
2023-06-18T12:04:07.404Z,46.92
2023-06-18T12:06:37.737Z,47.54
2023-06-18T12:09:22.637Z,47.99
2023-06-18T12:12:03.206Z,48.10
2023-06-18T12:14:38.911Z,48.55
2023-06-18T12:17:17.839Z,47.91
2023-06-18T12:19:54.281Z,47.25
2023-06-18T12:22:23.888Z,47.35
2023-06-18T12:24:53.643Z,47.61
2023-06-18T12:27:26.229Z,48.04
2023-06-18T12:29:59.701Z,47.66
2023-06-18T12:32:30.321Z,48.59
2023-06-18T12:34:59.793Z,48.11
2023-06-18T12:37:35.356Z,47.48
2023-06-18T12:40:15.525Z,47.11
2023-06-18T12:42:44.972Z,46.76
2023-06-18T12:45:14.468Z,47.32
2023-06-18T12:47:47.286Z,46.79
2023-06-18T12:50:23.216Z,46.63
2023-06-18T12:52:53.209Z,46.38
2023-06-18T12:55:23.704Z,42.89
2023-06-18T12:57:53.144Z,45.02
2023-06-18T13:00:24.343Z,45.79
2023-06-18T13:02:55.149Z,45.90
2023-06-18T13:05:24.961Z,44.88
2023-06-18T13:07:55.223Z,45.14
2023-06-18T13:10:25.980Z,45.61
2023-06-18T13:12:55.836Z,45.87
2023-06-18T13:15:25.478Z,45.76
2023-06-18T13:17:57.911Z,46.01
2023-06-18T13:20:27.285Z,45.77
2023-06-18T13:22:57.194Z,46.26
2023-06-18T13:25:26.985Z,45.27
2023-06-18T13:27:56.656Z,43.97
2023-06-18T13:30:26.055Z,44.33
2023-06-18T13:32:58.228Z,44.87
2023-06-18T13:35:28.237Z,44.45
2023-06-18T13:37:58.224Z,44.02
2023-06-18T13:40:28.877Z,43.51
2023-06-18T13:42:59.553Z,44.59
2023-06-18T13:45:29.746Z,42.82
2023-06-18T13:48:00.428Z,43.35
2023-06-18T13:50:29.955Z,43.20
2023-06-18T13:52:59.028Z,40.79
2023-06-18T13:55:29.263Z,42.85
2023-06-18T13:57:59.050Z,40.56
2023-06-18T14:00:28.465Z,41.51
2023-06-18T14:02:59.362Z,40.33
2023-06-18T14:05:29.431Z,42.05
2023-06-18T14:07:59.304Z,41.46
2023-06-18T14:10:28.730Z,42.09
2023-06-18T14:12:57.765Z,43.04
2023-06-18T14:15:27.485Z,44.07
2023-06-18T14:17:56.790Z,44.59
2023-06-18T14:20:27.523Z,45.43
2023-06-18T14:22:56.954Z,45.10
2023-06-18T14:25:26.519Z,45.44
2023-06-18T14:27:56.417Z,45.88
2023-06-18T14:30:26.427Z,46.45
2023-06-18T14:32:55.677Z,46.70
2023-06-18T14:35:26.644Z,46.28
2023-06-18T14:37:55.760Z,46.48
2023-06-18T14:40:25.129Z,46.69
2023-06-18T14:42:56.120Z,46.69
2023-06-18T14:45:26.099Z,46.75
2023-06-18T14:47:55.316Z,46.91
2023-06-18T14:50:26.221Z,47.38
2023-06-18T14:52:55.518Z,47.19
2023-06-18T14:55:25.093Z,47.18
2023-06-18T14:57:54.448Z,47.65
2023-06-18T15:00:23.875Z,47.76
2023-06-18T15:02:52.982Z,47.68
2023-06-18T15:05:23.928Z,47.33
2023-06-18T15:07:54.602Z,47.44
2023-06-18T15:10:24.070Z,47.34
2023-06-18T15:12:53.257Z,47.71
2023-06-18T15:15:22.894Z,47.65
2023-06-18T15:17:52.213Z,46.59
2023-06-18T15:20:24.328Z,47.77
2023-06-18T15:22:55.352Z,46.85
2023-06-18T15:25:25.504Z,47.68
2023-06-18T15:27:56.371Z,46.95
2023-06-18T15:30:25.697Z,46.16
2023-06-18T15:32:54.727Z,46.32
2023-06-18T15:35:24.395Z,46.53
2023-06-18T15:37:55.654Z,46.30
2023-06-18T15:40:25.193Z,45.79
2023-06-18T15:42:54.209Z,44.79
2023-06-18T15:45:23.948Z,45.41
2023-06-18T15:47:53.466Z,45.04
2023-06-18T15:50:23.207Z,45.69
2023-06-18T15:52:54.985Z,45.51
2023-06-18T15:55:26.050Z,44.25
2023-06-18T15:57:55.207Z,44.08
2023-06-18T16:00:24.546Z,43.59
2023-06-18T16:02:53.802Z,43.80
2023-06-18T16:05:24.237Z,42.56
2023-06-18T16:07:53.667Z,41.07
2023-06-18T16:10:23.058Z,40.79
2023-06-18T16:12:53.624Z,41.78
2023-06-18T16:15:23.806Z,40.31
2023-06-18T16:17:53.287Z,39.08
2023-06-18T16:20:22.904Z,39.90
2023-06-18T16:22:51.941Z,40.33
2023-06-18T16:25:21.479Z,39.46
2023-06-18T16:27:52.255Z,40.37
2023-06-18T16:30:21.739Z,40.25
2023-06-18T16:32:50.791Z,39.05
2023-06-18T16:35:20.451Z,38.77
2023-06-18T16:37:49.614Z,39.57
2023-06-18T16:40:18.947Z,38.80
2023-06-18T16:42:48.210Z,39.97
2023-06-18T16:45:19.058Z,40.12
2023-06-18T16:47:48.606Z,38.07
2023-06-18T16:50:18.236Z,39.28
2023-06-18T16:52:47.353Z,38.71
2023-06-18T16:55:16.750Z,38.82
2023-06-18T16:57:45.887Z,38.15
2023-06-18T17:00:16.286Z,39.33
2023-06-18T17:02:46.911Z,39.42
2023-06-18T17:05:16.881Z,38.64
2023-06-18T17:07:46.014Z,39.33
2023-06-18T17:10:15.353Z,39.33
2023-06-18T17:12:44.359Z,39.21
2023-06-18T17:15:13.787Z,39.78
2023-06-18T17:17:42.955Z,40.02
2023-06-18T17:20:14.182Z,39.82
2023-06-18T17:22:43.611Z,40.37
2023-06-18T17:25:12.934Z,40.64
2023-06-18T17:27:42.085Z,39.94
2023-06-18T17:30:12.082Z,40.82
2023-06-18T17:32:41.542Z,40.37
2023-06-18T17:35:12.459Z,41.10
2023-06-18T17:37:41.783Z,41.02
2023-06-18T17:40:12.031Z,40.94
2023-06-18T17:42:41.240Z,41.39
2023-06-18T17:45:11.246Z,41.65
2023-06-18T17:47:40.484Z,41.17
2023-06-18T17:50:10.472Z,41.60
2023-06-18T17:52:42.216Z,42.03
2023-06-18T17:55:13.153Z,41.83
2023-06-18T17:57:43.069Z,42.45
2023-06-18T18:00:12.894Z,42.60
2023-06-18T18:02:42.155Z,42.91
2023-06-18T18:05:12.234Z,42.60
2023-06-18T18:07:42.874Z,42.63
2023-06-18T18:10:12.692Z,43.00
2023-06-18T18:12:41.814Z,43.22
2023-06-18T18:15:11.952Z,42.90
2023-06-18T18:17:41.104Z,43.19
2023-06-18T18:20:12.757Z,43.45
2023-06-18T18:22:44.331Z,43.58
2023-06-18T18:25:14.698Z,43.74
2023-06-18T18:27:45.402Z,43.51
2023-06-18T18:30:18.108Z,43.52
2023-06-18T18:32:48.310Z,43.72
2023-06-18T18:35:17.891Z,44.37
2023-06-18T18:37:50.401Z,44.29
2023-06-18T18:40:19.855Z,45.10
2023-06-18T18:42:56.474Z,44.93
2023-06-18T18:45:26.859Z,44.66
2023-06-18T18:47:56.023Z,45.22
2023-06-18T18:50:25.957Z,45.38
2023-06-18T18:52:56.676Z,45.92
2023-06-18T18:55:27.586Z,46.63
2023-06-18T18:57:56.638Z,46.46
2023-06-18T19:00:26.199Z,46.65
2023-06-18T19:02:55.534Z,46.63
2023-06-18T19:05:25.125Z,47.57
2023-06-18T19:07:55.735Z,47.76
2023-06-18T19:10:26.414Z,48.37
2023-06-18T19:12:58.157Z,48.69
2023-06-18T19:15:27.591Z,49.12
2023-06-18T19:17:56.782Z,49.30
2023-06-18T19:20:26.658Z,49.10
2023-06-18T19:23:00.430Z,49.27
2023-06-18T19:25:30.613Z,49.19
2023-06-18T19:28:01.560Z,49.41
2023-06-18T19:30:33.435Z,49.78
2023-06-18T19:33:04.587Z,49.72
2023-06-18T19:35:34.271Z,49.88
2023-06-18T19:38:08.332Z,50.25
2023-06-18T19:40:39.730Z,50.56
2023-06-18T19:43:13.032Z,50.56
2023-06-18T19:45:43.865Z,51.01
2023-06-18T19:48:14.493Z,50.57
2023-06-18T19:50:44.673Z,50.37
2023-06-18T19:53:15.561Z,50.30
2023-06-18T19:55:46.322Z,50.39
2023-06-18T19:58:16.305Z,50.52
2023-06-18T20:00:48.508Z,50.47
2023-06-18T20:03:19.161Z,50.40
2023-06-18T20:05:49.868Z,50.78
2023-06-18T20:08:22.465Z,51.04
2023-06-18T20:10:51.963Z,51.10
2023-06-18T20:13:22.125Z,51.34
2023-06-18T20:15:53.880Z,51.11
2023-06-18T20:18:23.473Z,51.12
2023-06-18T20:20:55.579Z,50.63
2023-06-18T20:23:29.102Z,51.21
2023-06-18T20:26:00.180Z,51.29
2023-06-18T20:28:30.122Z,51.34
2023-06-18T20:31:01.337Z,51.09
2023-06-18T20:33:31.196Z,50.83
2023-06-18T20:36:02.427Z,50.92
2023-06-18T20:38:33.671Z,50.99
2023-06-18T20:41:03.461Z,50.81
2023-06-18T20:43:33.144Z,50.92
2023-06-18T20:46:03.603Z,50.91
2023-06-18T20:48:33.589Z,51.52
2023-06-18T20:51:05.726Z,51.44
2023-06-18T20:53:37.808Z,51.74
2023-06-18T20:56:09.768Z,51.90
2023-06-18T20:58:40.620Z,51.95
2023-06-18T21:01:10.268Z,52.24
2023-06-18T21:03:42.894Z,52.24
2023-06-18T21:06:14.301Z,52.26
2023-06-18T21:08:46.436Z,52.85
2023-06-18T21:11:16.250Z,52.49
2023-06-18T21:13:47.161Z,53.73
2023-06-18T21:16:17.242Z,52.97
2023-06-18T21:18:46.391Z,53.04
2023-06-18T21:21:15.767Z,53.19
2023-06-18T21:23:46.468Z,53.37
2023-06-18T21:26:16.122Z,52.87
2023-06-18T21:28:45.305Z,53.23
2023-06-18T21:31:14.740Z,53.12
2023-06-18T21:33:44.452Z,52.09
2023-06-18T21:36:15.613Z,53.27
2023-06-18T21:38:46.207Z,53.13
2023-06-18T21:41:15.686Z,53.58
2023-06-18T21:43:44.487Z,53.64
2023-06-18T21:46:14.966Z,55.15
2023-06-18T21:48:44.160Z,58.15
2023-06-18T21:51:13.621Z,57.69
2023-06-18T21:53:42.444Z,57.06
2023-06-18T21:56:13.372Z,56.66
2023-06-18T21:58:42.469Z,55.97
2023-06-18T22:01:11.796Z,55.35
2023-06-18T22:03:40.753Z,55.41
2023-06-18T22:06:10.193Z,56.62
2023-06-18T22:08:42.798Z,55.29
2023-06-18T22:11:13.857Z,55.34
2023-06-18T22:13:43.191Z,55.24
2023-06-18T22:16:12.560Z,55.47
2023-06-18T22:18:41.804Z,56.61
2023-06-18T22:21:12.087Z,55.65
2023-06-18T22:23:41.580Z,56.77
2023-06-18T22:26:12.536Z,56.79
2023-06-18T22:28:41.770Z,56.15
2023-06-18T22:31:11.075Z,57.63
2023-06-18T22:33:40.259Z,56.51
2023-06-18T22:36:09.720Z,56.83
2023-06-18T22:38:38.868Z,55.80
2023-06-18T22:41:08.724Z,56.07
2023-06-18T22:43:38.967Z,54.94
2023-06-18T22:46:08.465Z,55.91
2023-06-18T22:48:37.636Z,57.95
2023-06-18T22:51:07.060Z,58.38
2023-06-18T22:53:35.912Z,57.52
2023-06-18T22:56:05.310Z,56.73
2023-06-18T22:58:34.253Z,57.46
2023-06-18T23:01:08.561Z,58.30
2023-06-18T23:03:38.190Z,58.59
2023-06-18T23:06:07.792Z,57.42
2023-06-18T23:08:36.651Z,58.23
2023-06-18T23:11:05.789Z,59.56
2023-06-18T23:13:34.892Z,59.12
2023-06-18T23:16:05.997Z,60.06
2023-06-18T23:18:35.132Z,57.64
2023-06-18T23:21:05.351Z,58.67
2023-06-18T23:23:34.542Z,57.65
2023-06-18T23:26:04.117Z,57.67
2023-06-18T23:28:33.321Z,58.42
2023-06-18T23:31:04.692Z,57.41
2023-06-18T23:33:35.844Z,57.26
2023-06-18T23:36:05.113Z,57.02
2023-06-18T23:38:35.511Z,56.76
2023-06-18T23:41:04.588Z,56.76
2023-06-18T23:43:33.938Z,56.64
2023-06-18T23:46:03.047Z,56.10
2023-06-18T23:48:32.394Z,56.59
2023-06-18T23:51:03.033Z,57.13
2023-06-18T23:53:32.433Z,56.73
2023-06-18T23:56:01.476Z,56.96
2023-06-18T23:58:31.229Z,57.44
